createdAt,value
2023-03-06T00:00:57.678Z,9.48
2023-03-06T00:03:27.656Z,9.07
2023-03-06T00:05:58.720Z,8.35
2023-03-06T00:08:27.564Z,8.10
2023-03-06T00:10:54.300Z,8.35
2023-03-06T00:13:21.020Z,8.70
2023-03-06T00:15:48.995Z,8.00
2023-03-06T00:18:15.566Z,7.25
2023-03-06T00:20:43.573Z,7.40
2023-03-06T00:23:11.402Z,7.07
2023-03-06T00:25:38.793Z,7.43
2023-03-06T00:28:05.918Z,8.00
2023-03-06T00:30:32.725Z,7.70
2023-03-06T00:32:59.295Z,7.10
2023-03-06T00:35:25.763Z,8.13
2023-03-06T00:37:52.241Z,7.28
2023-03-06T00:40:21.347Z,8.02
2023-03-06T00:42:48.487Z,8.50
2023-03-06T00:45:15.154Z,7.78
2023-03-06T00:47:42.013Z,8.77
2023-03-06T00:50:09.978Z,9.20
2023-03-06T00:52:36.528Z,8.95
2023-03-06T00:55:03.657Z,9.15
2023-03-06T00:57:30.151Z,9.75
2023-03-06T00:59:56.560Z,9.68
2023-03-06T01:02:23.090Z,10.50
2023-03-06T01:04:49.656Z,11.80
2023-03-06T01:07:16.193Z,11.68
2023-03-06T01:09:42.690Z,13.30
2023-03-06T01:12:09.332Z,13.75
2023-03-06T01:14:35.862Z,13.98
2023-03-06T01:17:02.368Z,14.38
2023-03-06T01:19:28.837Z,15.05
2023-03-06T01:21:55.411Z,14.43
2023-03-06T01:24:23.892Z,15.50
2023-03-06T01:26:50.345Z,15.00
2023-03-06T01:29:16.840Z,13.13
2023-03-06T01:31:43.365Z,11.85
2023-03-06T01:34:09.906Z,12.88
2023-03-06T01:36:36.322Z,11.90
2023-03-06T01:39:03.718Z,12.70
2023-03-06T01:41:30.553Z,12.43
2023-03-06T01:43:57.066Z,13.82
2023-03-06T01:46:32.621Z,15.32
2023-03-06T01:49:00.680Z,17.02
2023-03-06T01:51:33.667Z,17.15
2023-03-06T01:54:04.352Z,16.98
2023-03-06T01:56:30.931Z,17.90
2023-03-06T01:58:58.522Z,15.82
2023-03-06T02:01:25.606Z,15.85
2023-03-06T02:03:52.246Z,15.23
2023-03-06T02:06:21.578Z,19.50
2023-03-06T02:11:22.477Z,17.95
2023-03-06T02:13:51.743Z,19.88
2023-03-06T02:16:23.470Z,20.15
2023-03-06T02:18:51.063Z,21.88
2023-03-06T02:21:25.424Z,19.95
2023-03-06T02:24:21.014Z,20.55
2023-03-06T02:26:48.231Z,20.30
2023-03-06T02:29:21.187Z,21.00
2023-03-06T02:31:47.754Z,21.38
2023-03-06T02:34:14.180Z,21.17
2023-03-06T02:36:47.476Z,21.63
2023-03-06T02:39:15.708Z,20.30
2023-03-06T02:41:42.126Z,22.48
2023-03-06T02:44:08.615Z,21.92
2023-03-06T02:46:35.150Z,20.65
2023-03-06T02:49:01.871Z,20.50
2023-03-06T02:51:28.370Z,21.50
2023-03-06T02:53:54.833Z,22.02
2023-03-06T02:56:21.828Z,21.63
2023-03-06T02:58:48.386Z,21.75
2023-03-06T03:01:15.361Z,22.42
2023-03-06T03:03:41.833Z,21.20
2023-03-06T03:06:08.370Z,21.92
2023-03-06T03:08:35.337Z,23.70
2023-03-06T03:11:02.906Z,22.20
2023-03-06T03:13:29.529Z,21.52
2023-03-06T03:16:05.407Z,21.73
2023-03-06T03:18:32.354Z,22.48
2023-03-06T03:20:59.104Z,22.42
2023-03-06T03:23:26.199Z,21.38
2023-03-06T03:25:53.201Z,21.40
2023-03-06T03:28:19.821Z,22.00
2023-03-06T03:30:46.595Z,22.33
2023-03-06T03:33:13.182Z,21.23
2023-03-06T03:35:39.715Z,22.15
2023-03-06T03:38:06.140Z,21.90
2023-03-06T03:40:32.653Z,19.48
2023-03-06T03:42:59.158Z,21.92
2023-03-06T03:45:25.682Z,22.70
2023-03-06T03:47:52.155Z,20.90
2023-03-06T03:50:19.418Z,21.35
2023-03-06T03:52:45.842Z,21.58
2023-03-06T03:55:12.348Z,22.02
2023-03-06T03:57:39.213Z,21.23
2023-03-06T04:00:07.719Z,20.92
2023-03-06T04:02:34.131Z,20.83
2023-03-06T04:05:00.682Z,21.88
2023-03-06T04:07:27.132Z,20.88
2023-03-06T04:09:53.782Z,22.35
2023-03-06T04:12:20.213Z,21.30
2023-03-06T04:14:46.630Z,23.27
2023-03-06T04:17:13.125Z,21.73
2023-03-06T04:19:39.592Z,22.23
2023-03-06T04:22:06.044Z,21.80
2023-03-06T04:24:32.498Z,21.85
2023-03-06T04:26:58.930Z,22.05
2023-03-06T04:29:25.414Z,22.10
2023-03-06T04:31:52.079Z,22.35
2023-03-06T04:34:18.535Z,21.90
2023-03-06T04:36:45.204Z,22.55
2023-03-06T04:39:12.837Z,23.20
2023-03-06T04:41:40.578Z,22.55
2023-03-06T04:44:07.833Z,21.77
2023-03-06T04:46:35.137Z,22.33
2023-03-06T04:49:01.635Z,23.63
2023-03-06T04:51:28.209Z,21.77
2023-03-06T04:53:54.730Z,22.13
2023-03-06T04:56:21.130Z,23.23
2023-03-06T04:58:47.652Z,22.70
2023-03-06T05:01:14.102Z,23.48
2023-03-06T05:03:40.852Z,23.27
2023-03-06T05:06:07.391Z,25.15
2023-03-06T05:08:33.890Z,23.67
2023-03-06T05:11:01.967Z,24.33
2023-03-06T05:13:28.910Z,24.58
2023-03-06T05:15:55.410Z,24.90
2023-03-06T05:18:22.032Z,24.52
2023-03-06T05:20:48.470Z,26.15
2023-03-06T05:23:14.863Z,24.05
2023-03-06T05:25:42.055Z,24.08
2023-03-06T05:28:08.886Z,23.85
2023-03-06T05:30:35.653Z,23.42
2023-03-06T05:33:02.104Z,22.65
2023-03-06T05:35:28.744Z,24.42
2023-03-06T05:37:55.162Z,24.77
2023-03-06T05:40:21.656Z,23.70
2023-03-06T05:42:48.184Z,24.33
2023-03-06T05:45:15.060Z,23.75
2023-03-06T05:47:41.629Z,26.20
2023-03-06T05:50:10.325Z,24.83
2023-03-06T05:52:39.415Z,24.63
2023-03-06T05:55:06.710Z,24.88
2023-03-06T05:57:33.207Z,25.98
2023-03-06T05:59:59.665Z,26.38
2023-03-06T06:02:26.207Z,26.27
2023-03-06T06:04:52.728Z,26.65
2023-03-06T06:07:19.262Z,25.70
2023-03-06T06:09:46.211Z,27.27
2023-03-06T06:12:13.187Z,26.08
2023-03-06T06:14:40.002Z,26.45
2023-03-06T06:17:06.486Z,26.17
2023-03-06T06:19:32.978Z,26.67
2023-03-06T06:21:59.589Z,28.52
2023-03-06T06:24:26.451Z,26.65
2023-03-06T06:26:54.774Z,27.48
2023-03-06T06:29:21.781Z,28.85
2023-03-06T06:31:48.712Z,28.83
2023-03-06T06:34:15.353Z,27.42
2023-03-06T06:36:42.112Z,26.50
2023-03-06T06:39:09.584Z,27.33
2023-03-06T06:41:53.594Z,24.88
2023-03-06T06:44:22.552Z,25.88
2023-03-06T06:47:21.234Z,24.40
2023-03-06T06:49:37.061Z,25.67
2023-03-06T06:52:04.759Z,24.45
2023-03-06T06:54:32.927Z,25.13
2023-03-06T06:56:59.616Z,25.52
2023-03-06T06:59:26.168Z,25.35
2023-03-06T07:01:52.676Z,25.00
2023-03-06T07:04:19.252Z,25.48
2023-03-06T07:06:45.958Z,24.42
2023-03-06T07:09:13.589Z,27.30
2023-03-06T07:11:40.941Z,23.77
2023-03-06T07:14:08.094Z,24.05
2023-03-06T07:16:34.855Z,24.73
2023-03-06T07:19:01.383Z,23.88
2023-03-06T07:21:27.956Z,25.10
2023-03-06T07:23:57.222Z,25.33
2023-03-06T07:28:53.555Z,24.70
2023-03-06T07:33:49.519Z,25.58
2023-03-06T07:36:16.256Z,27.65
2023-03-06T07:38:42.848Z,29.70
2023-03-06T07:41:13.350Z,26.65
2023-03-06T07:43:41.141Z,27.50
2023-03-06T07:46:08.739Z,24.83
2023-03-06T07:48:36.514Z,25.48
2023-03-06T07:51:05.784Z,25.35
2023-03-06T07:55:59.432Z,24.20
2023-03-06T07:58:26.535Z,24.65
2023-03-06T08:00:52.971Z,23.30
2023-03-06T08:03:19.451Z,22.45
2023-03-06T08:05:46.038Z,23.58
2023-03-06T08:08:12.594Z,23.73
2023-03-06T08:10:39.146Z,24.10
2023-03-06T08:13:06.418Z,25.17
2023-03-06T08:15:32.914Z,25.80
2023-03-06T08:17:59.630Z,24.23
2023-03-06T08:20:26.158Z,26.15
2023-03-06T08:22:52.644Z,25.05
2023-03-06T08:25:19.133Z,26.58
2023-03-06T08:27:47.292Z,26.20
2023-03-06T08:30:14.134Z,24.50
2023-03-06T08:32:40.634Z,25.35
2023-03-06T08:35:07.675Z,25.15
2023-03-06T08:37:34.314Z,24.92
2023-03-06T08:40:03.570Z,23.15
2023-03-06T08:42:30.572Z,22.15
2023-03-06T08:44:56.975Z,22.92
2023-03-06T08:47:23.479Z,19.42
2023-03-06T08:49:49.933Z,17.70
2023-03-06T08:52:17.011Z,17.63
2023-03-06T08:54:43.546Z,16.35
2023-03-06T08:57:10.129Z,15.13
2023-03-06T08:59:37.012Z,14.45
2023-03-06T09:02:05.271Z,14.23
2023-03-06T09:04:32.012Z,14.25
2023-03-06T09:07:00.604Z,15.45
2023-03-06T09:09:27.099Z,15.70
2023-03-06T09:11:53.636Z,14.32
2023-03-06T09:14:20.083Z,12.80
2023-03-06T09:16:46.577Z,13.45
2023-03-06T09:19:12.989Z,13.32
2023-03-06T09:21:39.422Z,13.02
2023-03-06T09:24:06.368Z,13.10
2023-03-06T09:26:45.130Z,13.63
2023-03-06T09:29:12.744Z,14.07
2023-03-06T09:31:39.287Z,16.17
2023-03-06T09:34:05.781Z,15.45
2023-03-06T09:36:40.138Z,17.73
2023-03-06T09:39:12.521Z,17.42
2023-03-06T09:41:42.341Z,19.10
2023-03-06T09:44:29.225Z,17.40
2023-03-06T09:47:22.643Z,19.77
2023-03-06T09:50:19.407Z,20.90
2023-03-06T09:52:57.882Z,20.33
2023-03-06T09:55:27.177Z,22.10
2023-03-06T09:57:59.040Z,20.92
2023-03-06T10:00:36.864Z,20.25
2023-03-06T10:03:21.537Z,20.83
2023-03-06T10:05:58.831Z,20.90
2023-03-06T10:08:49.084Z,20.75
2023-03-06T10:11:23.626Z,19.65
2023-03-06T10:14:29.516Z,20.02
2023-03-06T10:16:56.995Z,18.02
2023-03-06T10:19:23.622Z,17.33
2023-03-06T10:21:57.463Z,18.00
2023-03-06T10:24:29.995Z,17.33
2023-03-06T10:27:24.198Z,17.77
2023-03-06T10:30:03.059Z,19.40
2023-03-06T10:35:25.541Z,18.20
2023-03-06T10:38:00.097Z,16.67
2023-03-06T10:40:37.443Z,17.20
2023-03-06T10:43:12.071Z,19.88
2023-03-06T10:45:54.937Z,19.70
2023-03-06T10:48:28.040Z,19.15
2023-03-06T10:51:17.762Z,20.50
2023-03-06T10:54:13.656Z,19.40
2023-03-06T10:56:42.866Z,17.83
2023-03-06T10:59:22.883Z,16.30
2023-03-06T11:01:50.589Z,18.95
2023-03-06T11:04:33.553Z,17.88
2023-03-06T11:07:07.453Z,19.70
2023-03-06T11:09:34.416Z,19.65
2023-03-06T11:12:30.642Z,22.70
2023-03-06T11:15:24.558Z,20.92
2023-03-06T11:17:53.669Z,21.35
2023-03-06T11:20:38.321Z,21.60
2023-03-06T11:23:35.157Z,18.02
2023-03-06T11:26:27.198Z,20.35
2023-03-06T11:29:06.521Z,19.77
2023-03-06T11:34:44.224Z,18.45
2023-03-06T11:37:29.622Z,18.52
2023-03-06T11:40:12.026Z,18.55
2023-03-06T11:42:52.742Z,18.02
2023-03-06T11:45:26.652Z,18.42
2023-03-06T11:48:03.070Z,18.45
2023-03-06T11:50:40.989Z,18.83
2023-03-06T11:53:31.920Z,16.92
2023-03-06T11:56:24.689Z,18.77
2023-03-06T11:59:00.373Z,18.40
2023-03-06T12:01:50.388Z,19.13
2023-03-06T12:04:35.383Z,18.33
2023-03-06T12:07:32.426Z,17.25
2023-03-06T12:10:37.866Z,14.20
2023-03-06T12:13:14.491Z,13.88
2023-03-06T12:16:02.649Z,14.05
2023-03-06T12:18:39.514Z,14.18
2023-03-06T12:21:21.307Z,14.85
2023-03-06T12:24:26.190Z,15.60
2023-03-06T12:27:10.812Z,15.52
2023-03-06T12:29:40.148Z,15.40
2023-03-06T12:35:12.594Z,15.02
2023-03-06T12:37:46.660Z,13.02
2023-03-06T12:40:39.582Z,12.38
2023-03-06T12:43:19.519Z,12.35
2023-03-06T12:45:46.803Z,12.38
2023-03-06T12:48:21.669Z,11.55
2023-03-06T12:50:50.030Z,10.32
2023-03-06T12:53:27.517Z,11.48
2023-03-06T12:55:56.008Z,9.40
2023-03-06T12:58:28.697Z,10.23
2023-03-06T13:01:17.176Z,9.48
2023-03-06T13:04:05.488Z,6.25
2023-03-06T13:06:54.544Z,8.25
2023-03-06T13:09:32.852Z,7.70
2023-03-06T13:12:23.571Z,7.93
2023-03-06T13:14:56.064Z,5.03
2023-03-06T13:17:38.686Z,6.85
2023-03-06T13:20:28.192Z,6.95
2023-03-06T13:22:54.772Z,6.10
2023-03-06T13:25:21.217Z,7.50
2023-03-06T13:28:01.178Z,7.68
2023-03-06T13:30:36.477Z,7.70
2023-03-06T13:33:36.254Z,7.13
2023-03-06T13:36:36.224Z,7.60
2023-03-06T13:39:11.192Z,10.77
2023-03-06T13:41:54.042Z,10.85
2023-03-06T13:44:23.529Z,11.18
2023-03-06T13:49:34.953Z,9.77
2023-03-06T13:52:18.014Z,10.10
2023-03-06T13:55:05.976Z,10.05
2023-03-06T13:57:41.464Z,10.68
2023-03-06T14:00:17.033Z,11.32
2023-03-06T14:03:15.382Z,11.30
2023-03-06T14:05:50.757Z,10.50
2023-03-06T14:08:21.492Z,10.63
2023-03-06T14:10:59.374Z,10.10
2023-03-06T14:13:38.417Z,10.43
2023-03-06T14:16:19.842Z,10.25
2023-03-06T14:18:49.293Z,9.23
2023-03-06T14:24:00.426Z,10.50
2023-03-06T14:28:58.517Z,10.40
2023-03-06T14:31:32.017Z,11.07
2023-03-06T14:34:01.497Z,11.10
2023-03-06T14:39:10.562Z,12.05
2023-03-06T14:41:37.411Z,13.27
2023-03-06T14:44:18.049Z,13.48
2023-03-06T14:47:11.158Z,13.05
2023-03-06T14:49:37.617Z,13.40
2023-03-06T14:52:04.426Z,14.15
2023-03-06T14:54:38.723Z,12.27
2023-03-06T14:57:14.323Z,14.18
2023-03-06T14:59:47.304Z,15.10
2023-03-06T15:02:19.816Z,14.70
2023-03-06T15:04:51.075Z,14.40
2023-03-06T15:07:22.373Z,15.70
2023-03-06T15:09:51.196Z,15.68
2023-03-06T15:12:20.768Z,15.98
2023-03-06T15:15:03.614Z,14.38
2023-03-06T15:17:37.830Z,13.88
2023-03-06T15:20:07.893Z,13.43
2023-03-06T15:22:39.641Z,13.88
2023-03-06T15:25:32.322Z,13.65
2023-03-06T15:28:22.631Z,13.02
2023-03-06T15:31:10.488Z,13.48
2023-03-06T15:33:37.718Z,13.75
2023-03-06T15:36:06.249Z,13.98
2023-03-06T15:38:41.909Z,14.13
2023-03-06T15:41:40.985Z,13.02
2023-03-06T15:44:14.214Z,13.50
2023-03-06T15:46:41.380Z,13.90
2023-03-06T15:49:14.462Z,14.10
2023-03-06T15:51:41.035Z,14.55
2023-03-06T15:54:12.229Z,13.80
2023-03-06T15:56:41.693Z,14.63
2023-03-06T15:59:16.800Z,14.27
2023-03-06T16:01:43.706Z,14.95
2023-03-06T16:04:10.240Z,14.52
2023-03-06T16:06:37.593Z,16.00
2023-03-06T16:09:05.782Z,14.02
2023-03-06T16:11:43.294Z,14.75
2023-03-06T16:14:23.617Z,16.55
2023-03-06T16:16:54.193Z,17.35
2023-03-06T16:19:27.336Z,18.92
2023-03-06T16:21:55.734Z,20.00
2023-03-06T16:24:22.503Z,20.35
2023-03-06T16:26:51.089Z,17.98
2023-03-06T16:29:20.275Z,16.55
2023-03-06T16:31:47.020Z,17.17
2023-03-06T16:34:14.065Z,15.43
2023-03-06T16:36:43.409Z,16.67
2023-03-06T16:41:45.744Z,15.90
2023-03-06T16:44:12.781Z,15.88
2023-03-06T16:46:47.801Z,16.65
2023-03-06T16:49:24.496Z,16.77
2023-03-06T16:51:51.512Z,16.65
2023-03-06T16:54:18.661Z,16.77
2023-03-06T16:56:45.212Z,15.90
2023-03-06T16:59:12.229Z,17.83
2023-03-06T17:01:42.598Z,17.27
2023-03-06T17:04:09.521Z,16.77
2023-03-06T17:06:36.198Z,16.17
2023-03-06T17:09:02.695Z,16.50
2023-03-06T17:11:29.677Z,18.15
2023-03-06T17:13:56.232Z,17.60
2023-03-06T17:16:22.897Z,18.25
2023-03-06T17:18:49.697Z,17.80
2023-03-06T17:21:16.206Z,19.02
2023-03-06T17:23:44.243Z,20.50
2023-03-06T17:26:18.078Z,19.25
2023-03-06T17:28:45.482Z,18.98
2023-03-06T17:31:22.126Z,18.15
2023-03-06T17:33:49.455Z,20.17
2023-03-06T17:36:16.566Z,21.75
2023-03-06T17:38:43.350Z,22.02
2023-03-06T17:41:11.364Z,23.13
2023-03-06T17:43:38.942Z,21.85
2023-03-06T17:46:07.417Z,21.33
2023-03-06T17:48:34.260Z,18.00
2023-03-06T17:51:00.764Z,19.02
2023-03-06T17:53:27.632Z,18.73
2023-03-06T17:55:55.638Z,19.02
2023-03-06T17:58:22.138Z,18.80
2023-03-06T18:00:49.035Z,19.65
2023-03-06T18:03:15.639Z,19.38
2023-03-06T18:05:42.232Z,19.35
2023-03-06T18:08:10.184Z,18.05
2023-03-06T18:10:41.205Z,21.92
2023-03-06T18:13:09.922Z,19.95
2023-03-06T18:15:40.572Z,21.40
2023-03-06T18:18:07.789Z,21.48
2023-03-06T18:20:35.141Z,21.63
2023-03-06T18:23:03.643Z,20.67
2023-03-06T18:25:31.490Z,19.83
2023-03-06T18:27:58.740Z,23.35
2023-03-06T18:30:25.538Z,21.17
2023-03-06T18:32:52.040Z,19.23
2023-03-06T18:35:18.844Z,18.40
2023-03-06T18:37:45.349Z,18.70
2023-03-06T18:40:12.451Z,18.58
2023-03-06T18:42:39.037Z,19.70
2023-03-06T18:45:06.021Z,17.65
2023-03-06T18:47:33.556Z,17.10
2023-03-06T18:49:59.997Z,16.63
2023-03-06T18:52:26.557Z,16.70
2023-03-06T18:54:53.450Z,16.40
2023-03-06T18:57:19.942Z,16.98
2023-03-06T18:59:46.397Z,16.80
2023-03-06T19:02:12.896Z,17.58
2023-03-06T19:04:39.575Z,16.40
2023-03-06T19:07:06.686Z,15.85
2023-03-06T19:09:33.889Z,16.10
2023-03-06T19:12:03.119Z,15.95
2023-03-06T19:14:30.718Z,14.65
2023-03-06T19:16:57.339Z,16.05
2023-03-06T19:19:29.127Z,14.88
2023-03-06T19:21:58.228Z,16.20
2023-03-06T19:24:24.699Z,16.58
2023-03-06T19:26:51.130Z,16.10
2023-03-06T19:29:17.556Z,15.68
2023-03-06T19:31:44.125Z,18.23
2023-03-06T19:34:10.547Z,16.33
2023-03-06T19:36:38.729Z,17.42
2023-03-06T19:39:07.096Z,15.73
2023-03-06T19:41:34.259Z,14.57
2023-03-06T19:44:03.142Z,14.48
2023-03-06T19:46:29.985Z,14.13
2023-03-06T19:49:01.998Z,13.60
2023-03-06T19:51:29.345Z,13.35
2023-03-06T19:53:57.492Z,13.73
2023-03-06T19:56:27.432Z,13.13
2023-03-06T19:58:54.315Z,12.75
2023-03-06T20:01:22.838Z,12.98
2023-03-06T20:03:50.521Z,12.13
2023-03-06T20:06:19.259Z,13.30
2023-03-06T20:08:46.904Z,12.77
2023-03-06T20:11:24.406Z,13.00
2023-03-06T20:13:50.991Z,12.82
2023-03-06T20:16:18.576Z,13.35
2023-03-06T20:18:45.587Z,13.70
2023-03-06T20:21:12.143Z,12.68
2023-03-06T20:23:38.633Z,13.60
2023-03-06T20:26:11.712Z,13.65
2023-03-06T20:28:39.405Z,12.65
2023-03-06T20:31:11.215Z,12.48
2023-03-06T20:33:37.896Z,14.32
2023-03-06T20:36:05.040Z,13.43
2023-03-06T20:38:31.540Z,13.88
2023-03-06T20:40:59.632Z,13.43
2023-03-06T20:43:26.152Z,12.82
2023-03-06T20:46:00.785Z,13.15
2023-03-06T20:48:27.378Z,12.23
2023-03-06T20:51:05.355Z,13.05
2023-03-06T20:53:32.092Z,13.88
2023-03-06T20:55:58.523Z,13.88
2023-03-06T20:58:28.502Z,13.43
2023-03-06T21:00:55.033Z,13.43
2023-03-06T21:03:21.708Z,14.38
2023-03-06T21:05:48.549Z,15.15
2023-03-06T21:08:16.253Z,14.85
2023-03-06T21:10:44.777Z,14.80
2023-03-06T21:13:11.542Z,14.27
2023-03-06T21:15:39.505Z,14.80
2023-03-06T21:18:06.407Z,15.38
2023-03-06T21:20:33.713Z,15.02
2023-03-06T21:23:01.699Z,14.52
2023-03-06T21:25:28.903Z,15.35
2023-03-06T21:27:56.052Z,15.70
2023-03-06T21:30:22.476Z,14.75
2023-03-06T21:32:51.067Z,15.77
2023-03-06T21:35:18.131Z,16.85
2023-03-06T21:37:45.446Z,15.65
2023-03-06T21:40:14.193Z,16.00
2023-03-06T21:42:41.385Z,16.45
2023-03-06T21:45:08.154Z,16.98
2023-03-06T21:47:38.729Z,15.88
2023-03-06T21:50:08.135Z,17.48
2023-03-06T21:52:34.538Z,17.85
2023-03-06T21:55:01.026Z,17.88
2023-03-06T21:57:27.736Z,18.23
2023-03-06T21:59:54.223Z,18.23
2023-03-06T22:02:21.856Z,18.13
2023-03-06T22:04:52.635Z,18.48
2023-03-06T22:07:22.772Z,18.40
2023-03-06T22:09:52.668Z,18.30
2023-03-06T22:12:19.326Z,18.67
2023-03-06T22:14:45.805Z,18.58
2023-03-06T22:17:12.309Z,18.25
2023-03-06T22:19:38.860Z,18.77
2023-03-06T22:22:05.343Z,19.08
2023-03-06T22:24:31.916Z,19.65
2023-03-06T22:26:58.433Z,19.20
2023-03-06T22:29:24.919Z,19.13
2023-03-06T22:31:52.026Z,18.33
2023-03-06T22:34:18.561Z,18.52
2023-03-06T22:36:45.059Z,19.25
2023-03-06T22:39:12.841Z,19.40
2023-03-06T22:41:39.871Z,17.90
2023-03-06T22:44:06.442Z,18.00
2023-03-06T22:46:33.475Z,17.48
2023-03-06T22:49:00.818Z,18.48
2023-03-06T22:51:28.408Z,16.45
2023-03-06T22:53:55.374Z,17.67
2023-03-06T22:56:21.891Z,16.50
2023-03-06T22:58:48.368Z,17.33
2023-03-06T23:01:23.161Z,16.77
2023-03-06T23:03:51.396Z,17.63
2023-03-06T23:06:21.219Z,17.17
2023-03-06T23:09:02.549Z,16.08
2023-03-06T23:11:30.003Z,17.02
2023-03-06T23:13:56.973Z,16.05
2023-03-06T23:16:23.554Z,16.95
2023-03-06T23:18:52.425Z,17.83
2023-03-06T23:21:20.623Z,16.23
2023-03-06T23:23:49.026Z,17.27
2023-03-06T23:26:17.386Z,17.10
2023-03-06T23:28:44.188Z,16.83
2023-03-06T23:31:19.420Z,16.40
2023-03-06T23:33:45.957Z,17.15
2023-03-06T23:36:14.433Z,16.20
2023-03-06T23:38:41.076Z,15.20
2023-03-06T23:41:11.476Z,16.02
2023-03-06T23:43:38.192Z,15.98
2023-03-06T23:46:05.525Z,15.32
2023-03-06T23:48:31.952Z,15.13
2023-03-06T23:50:58.458Z,14.27
2023-03-06T23:53:25.267Z,14.27
2023-03-06T23:55:51.842Z,13.20
2023-03-06T23:58:19.544Z,13.13
